Time;durP1;ratioP1;P1;durP2;ratioP2;P2;SDS_P1;SDS_P2;PMS_P1;PMS_P2;Temp;Humidity;BMP_temperature;BMP_pressure;BME280_temperature;BME280_humidity;BME280_pressure;Samples;Min_cycle;Max_cycle;Signal;HPM_P1;HPM_P2
2021/12/13 00:00:16;;;;;;;18.77;8.65;;;;;;;;;;5053178;28;20071;-65
2021/12/13 00:02:45;;;;;;;15.98;7.65;;;;;;;;;;5053436;28;20041;-66
2021/12/13 00:05:22;;;;;;;18.52;8.15;;;;;;;;;;5053296;28;20017;-68
2021/12/13 00:07:52;;;;;;;26.10;9.27;;;;;;;;;;5053801;28;20477;-67
2021/12/13 00:10:19;;;;;;;17.83;9.13;;;;;;;;;;5053430;28;20021;-67
2021/12/13 00:12:46;;;;;;;18.33;8.25;;;;;;;;;;5053528;28;20025;-67
2021/12/13 00:15:14;;;;;;;18.30;8.45;;;;;;;;;;5053821;28;20021;-67
2021/12/13 00:17:43;;;;;;;19.90;9.20;;;;;;;;;;5053003;28;20513;-67
2021/12/13 00:20:08;;;;;;;17.70;8.23;;;;;;;;;;5052970;28;20488;-67
2021/12/13 00:22:36;;;;;;;18.33;8.32;;;;;;;;;;5053115;28;20048;-67
2021/12/13 00:25:06;;;;;;;17.73;8.90;;;;;;;;;;5053039;28;20063;-67
2021/12/13 00:27:32;;;;;;;15.45;7.95;;;;;;;;;;5052941;28;20029;-68
2021/12/13 00:30:08;;;;;;;22.85;8.27;;;;;;;;;;5053009;28;20017;-67
2021/12/13 00:33:03;;;;;;;20.80;7.75;;;;;;;;;;5053046;28;20014;-67
2021/12/13 00:35:35;;;;;;;16.00;7.75;;;;;;;;;;5034819;28;20119;-67
2021/12/13 00:38:01;;;;;;;25.95;8.68;;;;;;;;;;5052974;28;20013;-67
2021/12/13 00:40:33;;;;;;;21.70;8.63;;;;;;;;;;5052706;28;20555;-67
2021/12/13 00:43:03;;;;;;;15.82;7.97;;;;;;;;;;5052975;28;20096;-67
2021/12/13 00:45:30;;;;;;;24.67;8.52;;;;;;;;;;5052819;28;20041;-67
2021/12/13 00:47:56;;;;;;;17.05;7.68;;;;;;;;;;5052854;28;20068;-67
2021/12/13 00:50:31;;;;;;;16.92;6.55;;;;;;;;;;5052177;28;20606;-67
2021/12/13 00:52:56;;;;;;;16.42;7.95;;;;;;;;;;5053039;28;20046;-68
2021/12/13 00:55:26;;;;;;;17.90;6.88;;;;;;;;;;5052621;28;20060;-67
2021/12/13 00:58:04;;;;;;;12.65;6.68;;;;;;;;;;5052604;28;20063;-67
2021/12/13 01:00:37;;;;;;;15.18;8.23;;;;;;;;;;5051849;28;20029;-67
2021/12/13 01:03:05;;;;;;;14.00;6.75;;;;;;;;;;5052576;28;20112;-67
2021/12/13 01:05:43;;;;;;;16.60;7.22;;;;;;;;;;5051925;28;20374;-67
2021/12/13 01:08:11;;;;;;;18.27;7.22;;;;;;;;;;5052316;28;20075;-67
2021/12/13 01:10:56;;;;;;;13.48;6.38;;;;;;;;;;5052063;28;20013;-67
2021/12/13 01:13:29;;;;;;;12.10;6.40;;;;;;;;;;5052391;28;20020;-65
2021/12/13 01:16:09;;;;;;;18.17;7.47;;;;;;;;;;5052172;28;20025;-65
2021/12/13 01:18:56;;;;;;;15.80;6.85;;;;;;;;;;5052192;28;20418;-65
2021/12/13 01:21:32;;;;;;;21.80;7.47;;;;;;;;;;5051430;28;20118;-66
2021/12/13 01:24:06;;;;;;;16.67;7.70;;;;;;;;;;5014309;28;20071;-67
2021/12/13 01:26:39;;;;;;;15.65;7.05;;;;;;;;;;5032171;28;20052;-66
2021/12/13 01:29:15;;;;;;;16.05;6.60;;;;;;;;;;5032095;28;20013;-67
2021/12/13 01:31:43;;;;;;;14.57;7.57;;;;;;;;;;5044082;28;20424;-67
2021/12/13 01:34:09;;;;;;;14.10;5.97;;;;;;;;;;5032077;28;20032;-66
2021/12/13 01:36:42;;;;;;;14.00;5.47;;;;;;;;;;5043365;28;20572;-67
2021/12/13 01:39:11;;;;;;;17.50;6.15;;;;;;;;;;5052221;28;20013;-65
2021/12/13 01:41:38;;;;;;;13.57;6.60;;;;;;;;;;5051536;28;20020;-67
2021/12/13 01:44:06;;;;;;;23.45;8.05;;;;;;;;;;5051753;28;20020;-67
2021/12/13 01:46:41;;;;;;;15.38;6.72;;;;;;;;;;5051288;28;20028;-67
2021/12/13 01:49:06;;;;;;;12.07;5.40;;;;;;;;;;5051708;28;20018;-67
2021/12/13 01:51:33;;;;;;;15.73;5.88;;;;;;;;;;5051264;28;20013;-66
2021/12/13 01:54:02;;;;;;;15.38;6.47;;;;;;;;;;5031384;28;20414;-66
2021/12/13 01:59:51;;;;;;;13.05;6.72;;;;;;;;;;5012133;28;20028;-66
2021/12/13 02:02:20;;;;;;;13.07;7.22;;;;;;;;;;5030647;28;20029;-67
2021/12/13 02:04:54;;;;;;;15.65;6.25;;;;;;;;;;5031244;28;20021;-66
2021/12/13 02:07:22;;;;;;;15.32;7.15;;;;;;;;;;5031492;28;20076;-66
2021/12/13 02:09:48;;;;;;;14.70;6.40;;;;;;;;;;5047338;28;20025;-66
2021/12/13 02:12:15;;;;;;;12.98;6.68;;;;;;;;;;5051022;28;20021;-66
2021/12/13 02:14:50;;;;;;;16.83;5.55;;;;;;;;;;5050964;28;20414;-66
2021/12/13 02:17:20;;;;;;;12.25;6.35;;;;;;;;;;5051168;28;20021;-67
2021/12/13 02:19:45;;;;;;;;;;;;;;;;;;5051486;28;20028;-67
2021/12/13 02:22:31;;;;;;;12.45;5.50;;;;;;;;;;5051148;28;19928;-67
2021/12/13 02:24:58;;;;;;;12.88;5.50;;;;;;;;;;5050556;28;20279;-67
2021/12/13 02:27:29;;;;;;;11.77;5.30;;;;;;;;;;5050992;28;20027;-65
2021/12/13 02:29:55;;;;;;;10.43;5.43;;;;;;;;;;5050835;28;20124;-66
2021/12/13 02:32:25;;;;;;;11.60;5.82;;;;;;;;;;5050622;28;20027;-67
2021/12/13 02:34:50;;;;;;;14.18;6.20;;;;;;;;;;5050651;28;20047;-66
2021/12/13 02:37:16;;;;;;;14.85;5.45;;;;;;;;;;5050893;28;20017;-67
2021/12/13 02:39:44;;;;;;;17.55;6.97;;;;;;;;;;5050488;28;20053;-67
2021/12/13 02:42:10;;;;;;;12.65;5.72;;;;;;;;;;5050117;28;20075;-66
2021/12/13 02:44:43;;;;;;;9.10;4.80;;;;;;;;;;5050569;28;20036;-66
2021/12/13 02:47:14;;;;;;;9.10;4.43;;;;;;;;;;5050505;28;20021;-67
2021/12/13 02:49:40;;;;;;;10.23;5.10;;;;;;;;;;5050414;28;20017;-67
2021/12/13 02:52:07;;;;;;;8.70;5.03;;;;;;;;;;5050095;28;20033;-66
2021/12/13 02:54:35;;;;;;;5.80;3.75;;;;;;;;;;5050119;28;20032;-65
2021/12/13 02:57:03;;;;;;;10.68;5.30;;;;;;;;;;5049698;28;20062;-67
2021/12/13 02:59:30;;;;;;;11.05;4.53;;;;;;;;;;5050571;28;20024;-66
2021/12/13 03:01:55;;;;;;;9.80;4.97;;;;;;;;;;5035329;28;20032;-67
2021/12/13 03:04:22;;;;;;;9.75;5.22;;;;;;;;;;5030586;28;20025;-65
2021/12/13 03:07:07;;;;;;;10.75;4.22;;;;;;;;;;5036039;28;20286;-66
2021/12/13 03:09:34;;;;;;;8.75;4.05;;;;;;;;;;5032148;28;20036;-65
2021/12/13 03:12:00;;;;;;;6.20;3.65;;;;;;;;;;5050014;28;20144;-67
2021/12/13 03:14:25;;;;;;;6.82;4.03;;;;;;;;;;5050325;28;20013;-66
2021/12/13 03:16:53;;;;;;;9.13;3.90;;;;;;;;;;5050272;28;20036;-66
2021/12/13 03:19:36;;;;;;;7.40;3.72;;;;;;;;;;5050393;28;20655;-66
2021/12/13 03:22:06;;;;;;;7.93;4.20;;;;;;;;;;5049744;28;20041;-66
2021/12/13 03:24:35;;;;;;;13.23;3.78;;;;;;;;;;5030342;28;20036;-67
2021/12/13 03:27:18;;;;;;;9.25;3.30;;;;;;;;;;5030114;28;20033;-66
2021/12/13 03:29:51;;;;;;;6.97;2.97;;;;;;;;;;5030251;28;20463;-67
2021/12/13 03:32:16;;;;;;;6.10;3.25;;;;;;;;;;5043875;28;20017;-66
2021/12/13 03:34:45;;;;;;;7.68;3.45;;;;;;;;;;5047171;28;20027;-65
2021/12/13 03:37:14;;;;;;;12.80;3.40;;;;;;;;;;5030270;28;20024;-66
2021/12/13 03:39:45;;;;;;;9.38;3.85;;;;;;;;;;5043786;28;20075;-67
2021/12/13 03:42:17;;;;;;;6.85;3.45;;;;;;;;;;5049854;28;20412;-66
2021/12/13 03:44:46;;;;;;;7.85;3.80;;;;;;;;;;5049899;28;20454;-67
2021/12/13 03:47:14;;;;;;;5.50;3.60;;;;;;;;;;5049206;28;20021;-66
2021/12/13 03:49:45;;;;;;;8.43;4.20;;;;;;;;;;5049382;28;20097;-67
2021/12/13 03:52:10;;;;;;;;;;;;;;;;;;5050243;28;20017;-64
2021/12/13 03:54:37;;;;;;;7.40;3.57;;;;;;;;;;5049964;28;19995;-66
2021/12/13 03:57:03;;;;;;;9.55;3.10;;;;;;;;;;5074284;23;20293;-70
2021/12/13 03:59:28;;;;;;;9.13;3.40;;;;;;;;;;5047429;28;20737;-71
2021/12/13 04:01:56;;;;;;;7.03;3.38;;;;;;;;;;5048828;28;20025;-72
2021/12/13 04:04:28;;;;;;;12.02;3.55;;;;;;;;;;5049956;28;20063;-71
2021/12/13 04:06:58;;;;;;;6.32;3.42;;;;;;;;;;5049443;28;20036;-72
2021/12/13 04:09:24;;;;;;;10.65;3.65;;;;;;;;;;5052192;28;20033;-70
2021/12/13 04:11:52;;;;;;;7.25;3.97;;;;;;;;;;5052833;28;20495;-71
2021/12/13 04:14:25;;;;;;;9.18;3.53;;;;;;;;;;5053241;28;20540;-72
2021/12/13 04:17:07;;;;;;;8.60;4.20;;;;;;;;;;5052592;28;20473;-71
2021/12/13 04:19:39;;;;;;;8.10;3.70;;;;;;;;;;5053103;28;20029;-72
2021/12/13 04:22:04;;;;;;;7.13;3.65;;;;;;;;;;5051837;28;20056;-71
2021/12/13 04:24:29;;;;;;;7.75;3.67;;;;;;;;;;5051393;28;20330;-71
2021/12/13 04:26:57;;;;;;;7.88;3.80;;;;;;;;;;5034186;28;20103;-71
2021/12/13 04:29:26;;;;;;;6.65;3.33;;;;;;;;;;5052766;28;20029;-71
2021/12/13 04:31:52;;;;;;;7.00;3.42;;;;;;;;;;5050921;28;20013;-72
2021/12/13 04:34:20;;;;;;;7.20;3.20;;;;;;;;;;5052234;28;20024;-72
2021/12/13 04:36:46;;;;;;;7.57;3.72;;;;;;;;;;5052539;28;20508;-72
2021/12/13 04:39:13;;;;;;;6.85;3.67;;;;;;;;;;5052330;28;20163;-72
2021/12/13 04:41:46;;;;;;;6.60;3.33;;;;;;;;;;5052295;28;20477;-71
2021/12/13 04:44:14;;;;;;;9.85;3.92;;;;;;;;;;5052632;28;20453;-72
2021/12/13 04:46:41;;;;;;;6.65;3.80;;;;;;;;;;5052283;28;20284;-71
2021/12/13 04:49:08;;;;;;;7.93;3.70;;;;;;;;;;5051759;28;20027;-70
2021/12/13 04:51:54;;;;;;;6.90;4.25;;;;;;;;;;5052259;28;20043;-71
2021/12/13 04:54:19;;;;;;;7.10;3.72;;;;;;;;;;5051944;28;20071;-71
2021/12/13 04:56:46;;;;;;;6.45;3.67;;;;;;;;;;5052471;28;20025;-71
2021/12/13 04:59:13;;;;;;;9.95;3.83;;;;;;;;;;5052023;28;20040;-71
2021/12/13 05:01:39;;;;;;;6.18;3.75;;;;;;;;;;5051591;28;20025;-71
2021/12/13 05:04:05;;;;;;;8.43;4.10;;;;;;;;;;5051889;28;20548;-71
2021/12/13 05:06:32;;;;;;;4.45;2.92;;;;;;;;;;5051995;28;20021;-72
2021/12/13 05:08:58;;;;;;;7.93;3.10;;;;;;;;;;5051966;28;20188;-71
2021/12/13 05:11:28;;;;;;;5.57;2.70;;;;;;;;;;5052009;28;20096;-71
2021/12/13 05:13:55;;;;;;;9.93;3.30;;;;;;;;;;5051556;28;20028;-69
2021/12/13 05:16:27;;;;;;;6.05;3.42;;;;;;;;;;5052053;28;20039;-70
2021/12/13 05:18:54;;;;;;;6.47;3.40;;;;;;;;;;5051826;28;20091;-72
2021/12/13 05:21:46;;;;;;;4.55;3.00;;;;;;;;;;5051033;28;20047;-71
2021/12/13 05:24:19;;;;;;;5.88;2.83;;;;;;;;;;5047493;28;20617;-72
2021/12/13 05:26:44;;;;;;;6.50;2.97;;;;;;;;;;5052054;28;20492;-71
2021/12/13 05:29:20;;;;;;;5.75;3.20;;;;;;;;;;5051609;28;20025;-70
2021/12/13 05:31:53;;;;;;;6.72;3.22;;;;;;;;;;5051441;28;20093;-71
2021/12/13 05:34:18;;;;;;;8.73;2.85;;;;;;;;;;5051643;28;20025;-71
2021/12/13 05:36:52;;;;;;;6.82;3.85;;;;;;;;;;5051783;28;20029;-72
2021/12/13 05:39:17;;;;;;;7.07;3.45;;;;;;;;;;5051108;28;20438;-71
2021/12/13 05:42:03;;;;;;;6.45;3.53;;;;;;;;;;5051223;28;20055;-71
2021/12/13 05:44:29;;;;;;;6.53;3.38;;;;;;;;;;5051662;28;20104;-70
2021/12/13 05:46:55;;;;;;;6.93;2.83;;;;;;;;;;5051733;28;20020;-71
2021/12/13 05:49:23;;;;;;;5.35;3.17;;;;;;;;;;5051275;28;20019;-71
2021/12/13 05:51:51;;;;;;;11.00;2.92;;;;;;;;;;5051318;28;20021;-71
2021/12/13 05:54:25;;;;;;;6.75;3.25;;;;;;;;;;5050970;28;20493;-70
2021/12/13 05:57:00;;;;;;;19.60;3.88;;;;;;;;;;5033489;28;20032;-71
2021/12/13 05:59:27;;;;;;;11.43;3.47;;;;;;;;;;5051398;28;20389;-72
2021/12/13 06:01:53;;;;;;;5.28;3.33;;;;;;;;;;5051035;28;20032;-71
2021/12/13 06:04:31;;;;;;;7.22;3.55;;;;;;;;;;5051044;28;20028;-72
2021/12/13 06:06:57;;;;;;;11.93;3.92;;;;;;;;;;5050928;28;20078;-71
2021/12/13 06:09:41;;;;;;;4.90;3.05;;;;;;;;;;5051448;28;20311;-71
2021/12/13 06:12:08;;;;;;;6.60;3.63;;;;;;;;;;5050657;28;20472;-72
2021/12/13 06:14:33;;;;;;;5.53;2.70;;;;;;;;;;5051126;28;20199;-71
2021/12/13 06:16:58;;;;;;;6.53;3.13;;;;;;;;;;5050616;28;20028;-72
2021/12/13 06:19:30;;;;;;;5.33;3.37;;;;;;;;;;5051036;28;20103;-72
2021/12/13 06:22:04;;;;;;;8.35;3.97;;;;;;;;;;5050358;28;20320;-72
2021/12/13 06:24:33;;;;;;;8.80;3.10;;;;;;;;;;5050893;28;20025;-71
2021/12/13 06:27:19;;;;;;;6.00;3.40;;;;;;;;;;5050766;28;20032;-72
2021/12/13 06:29:53;;;;;;;5.75;3.63;;;;;;;;;;5050482;28;20021;-71
2021/12/13 06:32:26;;;;;;;9.40;4.35;;;;;;;;;;5048995;28;20024;-72
2021/12/13 06:34:51;;;;;;;6.13;3.25;;;;;;;;;;5050539;28;20017;-72
2021/12/13 06:37:30;;;;;;;7.30;3.97;;;;;;;;;;5050213;28;20074;-72
2021/12/13 06:40:09;;;;;;;4.70;2.70;;;;;;;;;;5050482;28;20560;-71
2021/12/13 06:42:34;;;;;;;8.85;3.03;;;;;;;;;;5050387;28;20024;-70
2021/12/13 06:44:59;;;;;;;8.38;3.30;;;;;;;;;;5032310;28;20027;-72
2021/12/13 06:47:24;;;;;;;4.82;3.13;;;;;;;;;;5032472;28;20024;-72
2021/12/13 06:49:55;;;;;;;8.57;3.20;;;;;;;;;;5050446;28;20191;-72
2021/12/13 06:52:21;;;;;;;6.57;3.25;;;;;;;;;;5049999;28;20457;-72
2021/12/13 06:54:55;;;;;;;5.55;2.75;;;;;;;;;;5050489;28;20047;-70
2021/12/13 06:57:23;;;;;;;5.90;2.95;;;;;;;;;;5050385;28;20362;-70
2021/12/13 06:59:53;;;;;;;4.78;2.80;;;;;;;;;;5047710;28;20610;-72
2021/12/13 07:02:18;;;;;;;;;;;;;;;;;;5050586;28;20488;-72
2021/12/13 07:04:55;;;;;;;8.65;3.78;;;;;;;;;;5050466;28;20280;-72
2021/12/13 07:07:22;;;;;;;3.13;1.33;;;;;;;;;;5050203;28;20025;-72
2021/12/13 07:09:49;;;;;;;4.85;2.80;;;;;;;;;;5050435;28;20028;-72
2021/12/13 07:12:16;;;;;;;5.47;3.05;;;;;;;;;;5050043;28;20029;-72
2021/12/13 07:14:42;;;;;;;6.80;3.22;;;;;;;;;;5050090;28;20102;-72
2021/12/13 07:17:15;;;;;;;5.95;3.03;;;;;;;;;;5050109;28;20021;-72
2021/12/13 07:19:43;;;;;;;7.00;2.83;;;;;;;;;;5050275;28;20079;-72
2021/12/13 07:22:08;;;;;;;5.78;3.17;;;;;;;;;;5049940;28;20028;-72
2021/12/13 07:24:40;;;;;;;5.32;3.20;;;;;;;;;;5050398;28;20029;-71
2021/12/13 07:27:14;;;;;;;5.60;2.53;;;;;;;;;;5049958;28;20032;-70
2021/12/13 07:29:56;;;;;;;11.15;3.50;;;;;;;;;;5050075;28;20021;-70
2021/12/13 07:32:35;;;;;;;9.73;2.75;;;;;;;;;;5049595;28;20029;-72
2021/12/13 07:35:04;;;;;;;7.55;3.80;;;;;;;;;;5050241;28;20021;-72
2021/12/13 07:37:35;;;;;;;19.52;3.90;;;;;;;;;;5050152;28;20028;-72
2021/12/13 07:40:33;;;;;;;7.95;3.60;;;;;;;;;;5049924;28;20503;-72
2021/12/13 07:42:58;;;;;;;4.50;2.85;;;;;;;;;;5016339;28;20029;-72
2021/12/13 07:45:35;;;;;;;6.82;3.03;;;;;;;;;;5053979;28;20032;-72
2021/12/13 07:48:04;;;;;;;5.97;4.07;;;;;;;;;;5053485;28;20029;-72
2021/12/13 07:50:30;;;;;;;4.83;2.37;;;;;;;;;;5053690;28;20044;-72
2021/12/13 07:52:59;;;;;;;6.97;2.72;;;;;;;;;;5053900;28;20721;-72
2021/12/13 07:55:26;;;;;;;5.05;3.10;;;;;;;;;;5053683;28;20461;-72
2021/12/13 07:57:53;;;;;;;4.72;2.88;;;;;;;;;;5053588;28;20029;-72
2021/12/13 08:00:21;;;;;;;9.32;3.55;;;;;;;;;;5053301;28;20075;-71
2021/12/13 08:03:00;;;;;;;6.68;3.45;;;;;;;;;;5053698;28;20021;-71
2021/12/13 08:05:28;;;;;;;6.50;3.35;;;;;;;;;;5052980;28;20021;-72
2021/12/13 08:07:54;;;;;;;6.35;3.63;;;;;;;;;;5053300;28;20048;-72
2021/12/13 08:10:24;;;;;;;6.43;3.53;;;;;;;;;;5052991;28;20116;-71
2021/12/13 08:12:53;;;;;;;7.40;3.10;;;;;;;;;;5053555;28;20020;-71
2021/12/13 08:15:18;;;;;;;5.95;3.15;;;;;;;;;;5053213;28;20083;-72
2021/12/13 08:17:46;;;;;;;9.70;3.75;;;;;;;;;;5053279;28;20423;-72
2021/12/13 08:20:13;;;;;;;7.97;3.00;;;;;;;;;;5053174;28;20465;-72
2021/12/13 08:22:43;;;;;;;5.35;2.83;;;;;;;;;;5053435;28;20500;-71
2021/12/13 08:25:13;;;;;;;6.13;3.03;;;;;;;;;;5051463;28;20542;-70
2021/12/13 08:27:41;;;;;;;6.15;3.45;;;;;;;;;;5053367;28;20107;-71
2021/12/13 08:30:18;;;;;;;5.88;3.60;;;;;;;;;;5052219;28;20025;-70
2021/12/13 08:32:53;;;;;;;5.20;2.97;;;;;;;;;;5053163;28;20655;-72
2021/12/13 08:35:18;;;;;;;6.85;3.47;;;;;;;;;;5052966;28;20032;-72
2021/12/13 08:37:45;;;;;;;4.75;3.13;;;;;;;;;;5051352;28;20385;-71
2021/12/13 08:40:20;;;;;;;5.10;3.15;;;;;;;;;;5057805;28;20079;-72
2021/12/13 08:42:46;;;;;;;7.90;3.80;;;;;;;;;;5042204;28;20055;-70
2021/12/13 08:45:27;;;;;;;7.28;3.30;;;;;;;;;;5052397;28;20489;-70
2021/12/13 08:47:54;;;;;;;5.25;3.03;;;;;;;;;;5052713;28;20203;-70
2021/12/13 08:50:32;;;;;;;5.32;2.90;;;;;;;;;;5052328;28;20017;-72
2021/12/13 08:53:00;;;;;;;5.57;2.88;;;;;;;;;;5052797;28;20025;-70
2021/12/13 08:55:29;;;;;;;5.43;3.20;;;;;;;;;;5051471;28;20020;-72
2021/12/13 08:57:58;;;;;;;7.30;4.35;;;;;;;;;;5052136;28;20081;-70
2021/12/13 09:00:41;;;;;;;5.05;2.70;;;;;;;;;;5052237;28;20033;-71
2021/12/13 09:03:09;;;;;;;6.00;2.80;;;;;;;;;;5052518;28;20017;-72
2021/12/13 09:05:37;;;;;;;14.40;4.05;;;;;;;;;;5052666;28;20025;-72
2021/12/13 09:08:05;;;;;;;23.52;4.18;;;;;;;;;;5052055;28;20032;-71
2021/12/13 09:10:46;;;;;;;14.07;3.72;;;;;;;;;;5052151;28;20025;-72
2021/12/13 09:13:13;;;;;;;9.57;3.42;;;;;;;;;;5052293;28;20036;-72
2021/12/13 09:15:38;;;;;;;7.38;3.75;;;;;;;;;;5052357;28;20047;-71
2021/12/13 09:18:05;;;;;;;7.20;3.58;;;;;;;;;;5051991;28;20071;-72
2021/12/13 09:20:53;;;;;;;10.48;4.00;;;;;;;;;;5051975;28;20466;-71
2021/12/13 09:23:22;;;;;;;9.35;3.30;;;;;;;;;;5043174;28;20474;-72
2021/12/13 09:25:52;;;;;;;5.25;2.35;;;;;;;;;;5051843;28;20024;-71
2021/12/13 09:28:20;;;;;;;6.07;2.60;;;;;;;;;;5051725;28;20017;-72
2021/12/13 09:30:48;;;;;;;12.77;3.58;;;;;;;;;;5051808;28;20024;-71
2021/12/13 09:33:19;;;;;;;4.70;3.00;;;;;;;;;;5051625;28;20084;-72
2021/12/13 09:35:50;;;;;;;7.47;3.05;;;;;;;;;;5051329;28;20024;-72
2021/12/13 09:38:15;;;;;;;8.75;4.55;;;;;;;;;;5051694;28;20021;-72
2021/12/13 09:40:41;;;;;;;7.93;3.20;;;;;;;;;;5051578;28;20027;-71
2021/12/13 09:43:06;;;;;;;8.23;3.45;;;;;;;;;;5051733;28;20271;-72
2021/12/13 09:45:36;;;;;;;7.47;3.35;;;;;;;;;;5051884;28;20020;-72
2021/12/13 09:48:15;;;;;;;5.50;3.28;;;;;;;;;;5051588;28;20017;-72
2021/12/13 09:50:41;;;;;;;8.32;4.72;;;;;;;;;;5051349;28;20069;-72
2021/12/13 09:53:10;;;;;;;13.80;5.80;;;;;;;;;;5051816;28;20041;-72
2021/12/13 09:55:38;;;;;;;7.82;3.38;;;;;;;;;;5051646;28;20052;-70
2021/12/13 09:58:08;;;;;;;7.85;3.85;;;;;;;;;;5051177;28;20056;-72
2021/12/13 10:00:43;;;;;;;7.55;3.90;;;;;;;;;;5051153;28;20020;-70
2021/12/13 10:03:13;;;;;;;8.40;3.83;;;;;;;;;;5051159;28;20020;-72
2021/12/13 10:05:41;;;;;;;8.93;3.83;;;;;;;;;;5050836;28;20119;-71
2021/12/13 10:08:18;;;;;;;4.72;3.05;;;;;;;;;;5051124;28;20055;-70
2021/12/13 10:10:46;;;;;;;8.85;3.97;;;;;;;;;;5033170;28;20643;-69
2021/12/13 10:13:15;;;;;;;9.20;4.68;;;;;;;;;;5051166;28;20516;-71
2021/12/13 10:15:48;;;;;;;8.30;3.85;;;;;;;;;;5051193;28;20036;-71
2021/12/13 10:18:17;;;;;;;6.28;3.53;;;;;;;;;;5056607;28;20028;-71
2021/12/13 10:20:44;;;;;;;7.72;4.20;;;;;;;;;;5070691;28;20016;-70
2021/12/13 10:23:11;;;;;;;9.25;3.47;;;;;;;;;;5052642;28;20022;-71
2021/12/13 10:25:38;;;;;;;6.45;3.40;;;;;;;;;;5070784;28;20477;-70
2021/12/13 10:28:06;;;;;;;7.35;4.40;;;;;;;;;;5068830;28;20469;-71
2021/12/13 10:30:34;;;;;;;10.27;4.35;;;;;;;;;;5048653;28;20369;-71
2021/12/13 10:33:00;;;;;;;8.15;3.97;;;;;;;;;;5050482;28;20100;-71
2021/12/13 10:35:30;;;;;;;6.57;3.67;;;;;;;;;;5049361;28;20013;-72
2021/12/13 10:37:58;;;;;;;10.75;4.32;;;;;;;;;;5050619;28;20036;-72
2021/12/13 10:40:23;;;;;;;12.10;5.43;;;;;;;;;;5032058;28;20037;-72
2021/12/13 10:42:59;;;;;;;14.57;4.47;;;;;;;;;;5050546;28;20013;-72
2021/12/13 10:45:27;;;;;;;11.20;4.38;;;;;;;;;;5050356;28;20267;-72
2021/12/13 10:47:55;;;;;;;6.45;3.47;;;;;;;;;;5049771;28;20504;-72
2021/12/13 10:50:29;;;;;;;9.95;3.85;;;;;;;;;;5049905;28;20028;-71
2021/12/13 10:52:54;;;;;;;11.32;4.53;;;;;;;;;;5050319;28;20017;-72
2021/12/13 10:55:22;;;;;;;6.40;3.40;;;;;;;;;;5050016;28;20355;-72
2021/12/13 10:57:48;;;;;;;7.68;4.10;;;;;;;;;;5049757;28;20033;-72
2021/12/13 11:00:26;;;;;;;9.55;3.63;;;;;;;;;;5049684;28;20366;-72
2021/12/13 11:02:56;;;;;;;11.32;4.53;;;;;;;;;;5050092;28;20744;-72
2021/12/13 11:05:28;;;;;;;9.35;3.85;;;;;;;;;;5049811;28;20035;-72
2021/12/13 11:07:54;;;;;;;11.82;4.38;;;;;;;;;;5032158;28;20112;-72
2021/12/13 11:10:25;;;;;;;10.40;4.65;;;;;;;;;;5049858;28;20095;-72
2021/12/13 11:12:52;;;;;;;10.43;4.72;;;;;;;;;;5050181;28;20021;-72
2021/12/13 11:15:22;;;;;;;9.70;4.30;;;;;;;;;;5049813;28;20494;-72
2021/12/13 11:17:48;;;;;;;14.82;4.25;;;;;;;;;;5050427;28;20096;-72
2021/12/13 11:20:22;;;;;;;12.45;4.70;;;;;;;;;;5053775;28;20449;-73
2021/12/13 11:22:47;;;;;;;8.32;4.13;;;;;;;;;;5054604;28;20474;-72
2021/12/13 11:25:18;;;;;;;14.23;5.00;;;;;;;;;;5054317;28;20108;-72
2021/12/13 11:27:45;;;;;;;8.88;4.57;;;;;;;;;;5053810;28;20024;-72
2021/12/13 11:30:12;;;;;;;11.88;5.15;;;;;;;;;;5052833;28;20107;-72
2021/12/13 11:32:37;;;;;;;10.90;4.90;;;;;;;;;;5053913;28;20024;-72
2021/12/13 11:35:11;;;;;;;6.97;4.30;;;;;;;;;;5053856;28;20009;-71
2021/12/13 11:37:45;;;;;;;9.52;4.78;;;;;;;;;;5053664;28;20048;-72
2021/12/13 11:40:22;;;;;;;9.75;3.97;;;;;;;;;;5053380;28;20020;-72
2021/12/13 11:43:03;;;;;;;8.48;4.50;;;;;;;;;;5053843;28;20021;-72
2021/12/13 11:45:38;;;;;;;9.38;4.47;;;;;;;;;;5053727;28;20021;-72
2021/12/13 11:48:11;;;;;;;10.40;4.28;;;;;;;;;;5053594;28;20017;-71
2021/12/13 11:50:49;;;;;;;7.43;3.95;;;;;;;;;;5053608;28;20405;-72
2021/12/13 11:53:14;;;;;;;11.93;4.90;;;;;;;;;;5053297;28;20023;-72
2021/12/13 11:55:39;;;;;;;9.20;4.20;;;;;;;;;;5053592;28;20092;-72
2021/12/13 11:58:22;;;;;;;9.43;4.80;;;;;;;;;;5053263;28;20044;-72
2021/12/13 12:01:05;;;;;;;9.98;3.90;;;;;;;;;;5052954;28;20017;-72
2021/12/13 12:03:45;;;;;;;7.35;4.30;;;;;;;;;;5042464;28;20024;-72
2021/12/13 12:06:19;;;;;;;8.63;3.90;;;;;;;;;;5033670;28;20017;-72
2021/12/13 12:09:07;;;;;;;11.38;4.38;;;;;;;;;;5033395;28;20057;-73
2021/12/13 12:11:45;;;;;;;12.88;4.90;;;;;;;;;;5004587;28;20449;-72
2021/12/13 12:14:12;;;;;;;9.35;4.72;;;;;;;;;;5015316;28;20433;-71
2021/12/13 12:16:41;;;;;;;8.05;4.00;;;;;;;;;;5038501;28;20388;-72
2021/12/13 12:19:08;;;;;;;10.45;4.10;;;;;;;;;;5053077;28;20458;-71
2021/12/13 12:21:33;;;;;;;9.38;4.88;;;;;;;;;;5053093;28;20111;-72
2021/12/13 12:24:00;;;;;;;9.63;5.23;;;;;;;;;;5053284;28;20103;-72
2021/12/13 12:26:26;;;;;;;7.72;4.53;;;;;;;;;;5053109;28;20840;-72
2021/12/13 12:28:58;;;;;;;8.13;5.57;;;;;;;;;;5052998;28;20025;-73
2021/12/13 12:31:29;;;;;;;10.73;5.15;;;;;;;;;;5052875;28;20025;-72
2021/12/13 12:33:56;;;;;;;7.25;3.90;;;;;;;;;;5053003;28;20051;-72
2021/12/13 12:36:22;;;;;;;9.60;5.85;;;;;;;;;;5053006;28;20059;-72
2021/12/13 12:39:10;;;;;;;7.47;4.05;;;;;;;;;;5053027;28;20017;-72
2021/12/13 12:41:43;;;;;;;13.07;4.60;;;;;;;;;;5052088;28;20112;-72
2021/12/13 12:44:14;;;;;;;10.27;5.75;;;;;;;;;;5052948;28;20020;-71
2021/12/13 12:46:41;;;;;;;10.68;5.85;;;;;;;;;;5053115;28;20025;-72
2021/12/13 12:49:12;;;;;;;8.70;4.60;;;;;;;;;;5052685;28;20048;-72
2021/12/13 12:51:38;;;;;;;7.55;4.05;;;;;;;;;;5052649;28;20474;-70
2021/12/13 12:54:04;;;;;;;11.55;4.00;;;;;;;;;;5052256;28;20633;-71
2021/12/13 12:56:45;;;;;;;7.97;4.40;;;;;;;;;;5051192;28;20040;-72
2021/12/13 12:59:14;;;;;;;8.00;4.40;;;;;;;;;;5052331;28;20029;-71
2021/12/13 13:01:45;;;;;;;8.60;4.00;;;;;;;;;;5051908;28;20385;-73
2021/12/13 13:04:23;;;;;;;9.05;3.70;;;;;;;;;;5052493;28;20024;-72
2021/12/13 13:06:54;;;;;;;7.35;3.38;;;;;;;;;;5052440;28;20029;-71
2021/12/13 13:09:19;;;;;;;;;;;;;;;;;;5052412;28;20021;-72
2021/12/13 13:11:45;;;;;;;7.25;3.88;;;;;;;;;;5051250;28;19961;-72
2021/12/13 13:14:13;;;;;;;6.95;3.47;;;;;;;;;;5052106;28;20021;-72
2021/12/13 13:16:50;;;;;;;5.60;3.20;;;;;;;;;;5051601;28;20025;-72
2021/12/13 13:19:24;;;;;;;9.27;4.80;;;;;;;;;;5051955;28;20033;-72
2021/12/13 13:21:49;;;;;;;6.90;3.75;;;;;;;;;;5051821;28;20021;-72
2021/12/13 13:24:15;;;;;;;11.45;3.50;;;;;;;;;;5052039;28;20500;-73
2021/12/13 13:26:41;;;;;;;5.80;3.03;;;;;;;;;;5046821;28;20089;-73
2021/12/13 13:29:07;;;;;;;9.40;3.50;;;;;;;;;;5031795;28;20014;-70
2021/12/13 13:31:33;;;;;;;5.82;2.72;;;;;;;;;;5043350;28;20024;-69
2021/12/13 13:34:03;;;;;;;4.97;3.03;;;;;;;;;;5051741;28;20013;-70
2021/12/13 13:36:40;;;;;;;13.45;3.78;;;;;;;;;;5051904;28;20430;-71
2021/12/13 13:39:14;;;;;;;7.13;3.25;;;;;;;;;;5051580;28;20029;-71
2021/12/13 13:41:39;;;;;;;8.18;3.90;;;;;;;;;;5051010;28;20115;-71
2021/12/13 13:44:08;;;;;;;8.45;3.10;;;;;;;;;;5052010;28;20049;-71
2021/12/13 13:46:34;;;;;;;6.47;2.37;;;;;;;;;;5051349;28;20039;-71
2021/12/13 13:49:02;;;;;;;9.63;3.03;;;;;;;;;;5051520;28;20481;-71
2021/12/13 13:51:30;;;;;;;7.45;3.40;;;;;;;;;;5050917;28;20488;-71
2021/12/13 13:53:56;;;;;;;7.15;4.05;;;;;;;;;;5051623;28;20033;-71
2021/12/13 13:56:23;;;;;;;12.60;3.45;;;;;;;;;;5051505;28;20051;-71
2021/12/13 13:58:50;;;;;;;9.48;3.47;;;;;;;;;;5051355;28;20453;-70
2021/12/13 14:01:32;;;;;;;3.65;2.63;;;;;;;;;;5051241;28;20064;-71
2021/12/13 14:03:59;;;;;;;8.35;3.08;;;;;;;;;;5051452;28;20540;-71
2021/12/13 14:06:37;;;;;;;7.57;3.00;;;;;;;;;;5050894;28;20029;-71
2021/12/13 14:09:04;;;;;;;4.90;2.72;;;;;;;;;;5051268;28;20531;-70
2021/12/13 14:11:31;;;;;;;8.13;3.20;;;;;;;;;;5050374;28;20025;-72
2021/12/13 14:13:59;;;;;;;4.95;2.60;;;;;;;;;;5051159;28;20561;-72
2021/12/13 14:16:27;;;;;;;6.15;2.92;;;;;;;;;;5051051;28;20024;-72
2021/12/13 14:18:52;;;;;;;6.07;2.50;;;;;;;;;;5050900;28;20050;-72
2021/12/13 14:21:19;;;;;;;7.07;2.47;;;;;;;;;;5050385;28;20096;-72
2021/12/13 14:23:47;;;;;;;6.35;2.30;;;;;;;;;;5050809;28;20267;-71
2021/12/13 14:26:17;;;;;;;4.32;1.50;;;;;;;;;;5050880;28;20056;-72
2021/12/13 14:28:42;;;;;;;8.05;1.92;;;;;;;;;;5050896;28;20496;-72
2021/12/13 14:31:18;;;;;;;4.32;1.90;;;;;;;;;;5050448;28;20108;-72
2021/12/13 14:33:46;;;;;;;2.88;1.33;;;;;;;;;;5050739;28;20052;-71
2021/12/13 14:36:14;;;;;;;2.00;1.15;;;;;;;;;;5050675;28;20493;-72
2021/12/13 14:38:43;;;;;;;5.70;1.60;;;;;;;;;;5049424;28;20455;-71
2021/12/13 14:41:09;;;;;;;6.50;1.70;;;;;;;;;;5050376;28;20031;-72
2021/12/13 14:43:36;;;;;;;3.45;1.45;;;;;;;;;;5050730;28;20362;-72
2021/12/13 14:46:07;;;;;;;4.35;1.30;;;;;;;;;;5050726;28;20016;-71
2021/12/13 14:48:32;;;;;;;4.95;1.35;;;;;;;;;;5050184;28;20472;-72
2021/12/13 14:51:00;;;;;;;7.97;1.30;;;;;;;;;;5050296;28;20088;-68
2021/12/13 14:53:29;;;;;;;3.78;1.50;;;;;;;;;;5050176;28;20705;-72
2021/12/13 14:55:59;;;;;;;2.10;1.15;;;;;;;;;;5050695;28;20041;-72
2021/12/13 14:58:34;;;;;;;2.03;1.40;;;;;;;;;;5050199;28;20025;-71
2021/12/13 15:01:02;;;;;;;2.72;1.58;;;;;;;;;;5050292;28;20092;-72